sensor_id;sensor_type;location;lat;lon;timestamp;temperature;humidity
35668;DHT22;22158;59.280;17.806;2024-01-27T00:01:37;1.30;99.90
35668;DHT22;22158;59.280;17.806;2024-01-27T00:04:03;1.30;99.90
35668;DHT22;22158;59.280;17.806;2024-01-27T00:06:28;1.30;99.90
35668;DHT22;22158;59.280;17.806;2024-01-27T00:08:54;1.30;99.90
35668;DHT22;22158;59.280;17.806;2024-01-27T00:11:20;1.30;99.90
35668;DHT22;22158;59.280;17.806;2024-01-27T00:13:46;1.30;99.90
35668;DHT22;22158;59.280;17.806;2024-01-27T00:16:12;1.30;99.90
35668;DHT22;22158;59.280;17.806;2024-01-27T00:18:38;1.40;99.90
35668;DHT22;22158;59.280;17.806;2024-01-27T00:21:05;1.40;99.90
35668;DHT22;22158;59.280;17.806;2024-01-27T00:23:31;1.30;99.90
35668;DHT22;22158;59.280;17.806;2024-01-27T00:25:58;1.40;99.90
35668;DHT22;22158;59.280;17.806;2024-01-27T00:28:23;1.40;99.90
35668;DHT22;22158;59.280;17.806;2024-01-27T00:30:49;1.40;99.90
35668;DHT22;22158;59.280;17.806;2024-01-27T00:33:15;1.40;99.90
35668;DHT22;22158;59.280;17.806;2024-01-27T00:35:40;1.40;99.90
35668;DHT22;22158;59.280;17.806;2024-01-27T00:38:06;1.40;99.90
35668;DHT22;22158;59.280;17.806;2024-01-27T00:40:32;1.40;99.90
35668;DHT22;22158;59.280;17.806;2024-01-27T00:42:57;1.40;99.90
35668;DHT22;22158;59.280;17.806;2024-01-27T00:45:24;1.40;99.90
35668;DHT22;22158;59.280;17.806;2024-01-27T00:47:50;1.40;99.90
35668;DHT22;22158;59.280;17.806;2024-01-27T00:50:16;1.40;99.90
35668;DHT22;22158;59.280;17.806;2024-01-27T00:52:42;1.40;99.90
35668;DHT22;22158;59.280;17.806;2024-01-27T00:55:07;1.40;99.90
35668;DHT22;22158;59.280;17.806;2024-01-27T00:57:37;1.40;99.90
35668;DHT22;22158;59.280;17.806;2024-01-27T01:00:07;1.40;99.90
35668;DHT22;22158;59.280;17.806;2024-01-27T01:02:34;1.40;99.90
35668;DHT22;22158;59.280;17.806;2024-01-27T01:04:59;1.40;99.90
35668;DHT22;22158;59.280;17.806;2024-01-27T01:07:25;1.40;99.90
35668;DHT22;22158;59.280;17.806;2024-01-27T01:09:51;1.40;99.90
35668;DHT22;22158;59.280;17.806;2024-01-27T01:12:16;1.40;99.90
35668;DHT22;22158;59.280;17.806;2024-01-27T01:14:43;1.40;99.90
35668;DHT22;22158;59.280;17.806;2024-01-27T01:17:09;1.40;99.90
35668;DHT22;22158;59.280;17.806;2024-01-27T01:19:36;1.40;99.90
35668;DHT22;22158;59.280;17.806;2024-01-27T01:22:02;1.40;99.90
35668;DHT22;22158;59.280;17.806;2024-01-27T01:24:27;1.40;99.90
35668;DHT22;22158;59.280;17.806;2024-01-27T01:26:53;1.40;99.90
35668;DHT22;22158;59.280;17.806;2024-01-27T01:29:19;1.40;99.90
35668;DHT22;22158;59.280;17.806;2024-01-27T01:31:44;1.40;99.90
35668;DHT22;22158;59.280;17.806;2024-01-27T01:34:10;1.30;99.90
35668;DHT22;22158;59.280;17.806;2024-01-27T01:36:36;1.40;99.90
35668;DHT22;22158;59.280;17.806;2024-01-27T01:39:02;1.30;99.90
35668;DHT22;22158;59.280;17.806;2024-01-27T01:41:28;1.30;99.90
35668;DHT22;22158;59.280;17.806;2024-01-27T01:43:53;1.40;99.90
35668;DHT22;22158;59.280;17.806;2024-01-27T01:46:19;1.40;99.90
35668;DHT22;22158;59.280;17.806;2024-01-27T01:48:45;1.40;99.90
35668;DHT22;22158;59.280;17.806;2024-01-27T01:51:11;1.40;99.90
35668;DHT22;22158;59.280;17.806;2024-01-27T01:53:37;1.40;99.90
35668;DHT22;22158;59.280;17.806;2024-01-27T01:56:04;1.40;99.90
35668;DHT22;22158;59.280;17.806;2024-01-27T01:58:30;1.40;99.90
35668;DHT22;22158;59.280;17.806;2024-01-27T02:01:02;1.30;99.90
35668;DHT22;22158;59.280;17.806;2024-01-27T02:03:28;1.30;99.90
35668;DHT22;22158;59.280;17.806;2024-01-27T02:05:55;1.30;99.90
35668;DHT22;22158;59.280;17.806;2024-01-27T02:08:20;1.30;99.90
35668;DHT22;22158;59.280;17.806;2024-01-27T02:10:46;1.30;99.90
35668;DHT22;22158;59.280;17.806;2024-01-27T02:13:22;1.30;99.90
35668;DHT22;22158;59.280;17.806;2024-01-27T02:15:49;1.20;99.90
35668;DHT22;22158;59.280;17.806;2024-01-27T02:18:16;1.10;99.90
35668;DHT22;22158;59.280;17.806;2024-01-27T02:20:42;1.10;99.90
35668;DHT22;22158;59.280;17.806;2024-01-27T02:23:07;1.10;99.90
35668;DHT22;22158;59.280;17.806;2024-01-27T02:25:34;1.10;99.90
35668;DHT22;22158;59.280;17.806;2024-01-27T02:28:00;1.10;99.90
35668;DHT22;22158;59.280;17.806;2024-01-27T02:30:28;1.20;99.90
35668;DHT22;22158;59.280;17.806;2024-01-27T02:32:55;1.10;99.90
35668;DHT22;22158;59.280;17.806;2024-01-27T02:35:21;1.10;99.90
35668;DHT22;22158;59.280;17.806;2024-01-27T02:37:47;1.10;99.90
35668;DHT22;22158;59.280;17.806;2024-01-27T02:40:13;1.10;99.90
35668;DHT22;22158;59.280;17.806;2024-01-27T02:42:40;1.10;99.90
35668;DHT22;22158;59.280;17.806;2024-01-27T02:45:08;1.10;99.90
35668;DHT22;22158;59.280;17.806;2024-01-27T02:47:33;1.10;99.90
35668;DHT22;22158;59.280;17.806;2024-01-27T02:49:59;1.00;99.90
35668;DHT22;22158;59.280;17.806;2024-01-27T02:52:25;1.00;99.90
35668;DHT22;22158;59.280;17.806;2024-01-27T02:54:51;1.00;99.90
35668;DHT22;22158;59.280;17.806;2024-01-27T02:57:16;1.10;99.90
35668;DHT22;22158;59.280;17.806;2024-01-27T02:59:48;1.00;99.90
35668;DHT22;22158;59.280;17.806;2024-01-27T03:02:14;1.10;99.90
35668;DHT22;22158;59.280;17.806;2024-01-27T03:04:39;1.10;99.90
35668;DHT22;22158;59.280;17.806;2024-01-27T03:07:05;1.10;99.90
35668;DHT22;22158;59.280;17.806;2024-01-27T03:09:31;1.10;99.90
35668;DHT22;22158;59.280;17.806;2024-01-27T03:11:57;1.10;99.90
35668;DHT22;22158;59.280;17.806;2024-01-27T03:14:23;1.10;99.90
35668;DHT22;22158;59.280;17.806;2024-01-27T03:16:49;1.10;99.90
35668;DHT22;22158;59.280;17.806;2024-01-27T03:19:14;1.10;99.90
35668;DHT22;22158;59.280;17.806;2024-01-27T03:21:40;1.10;99.90
35668;DHT22;22158;59.280;17.806;2024-01-27T03:24:06;1.00;99.90
35668;DHT22;22158;59.280;17.806;2024-01-27T03:26:31;1.00;99.90
35668;DHT22;22158;59.280;17.806;2024-01-27T03:28:57;1.00;99.90
35668;DHT22;22158;59.280;17.806;2024-01-27T03:31:23;0.90;99.90
35668;DHT22;22158;59.280;17.806;2024-01-27T03:33:49;0.90;99.90
35668;DHT22;22158;59.280;17.806;2024-01-27T03:36:15;0.90;99.90
35668;DHT22;22158;59.280;17.806;2024-01-27T03:38:41;0.90;99.90
35668;DHT22;22158;59.280;17.806;2024-01-27T03:41:07;0.80;99.90
35668;DHT22;22158;59.280;17.806;2024-01-27T03:43:35;0.80;99.90
35668;DHT22;22158;59.280;17.806;2024-01-27T03:46:01;0.80;99.90
35668;DHT22;22158;59.280;17.806;2024-01-27T03:48:28;0.80;99.90
35668;DHT22;22158;59.280;17.806;2024-01-27T03:50:54;0.80;99.90
35668;DHT22;22158;59.280;17.806;2024-01-27T03:53:20;0.80;99.90
35668;DHT22;22158;59.280;17.806;2024-01-27T03:55:45;0.80;99.90
35668;DHT22;22158;59.280;17.806;2024-01-27T03:58:11;0.70;99.90
35668;DHT22;22158;59.280;17.806;2024-01-27T04:00:37;0.70;99.90
35668;DHT22;22158;59.280;17.806;2024-01-27T04:03:02;0.70;99.90
35668;DHT22;22158;59.280;17.806;2024-01-27T04:05:29;0.70;99.90
35668;DHT22;22158;59.280;17.806;2024-01-27T04:07:55;0.70;99.90
35668;DHT22;22158;59.280;17.806;2024-01-27T04:10:22;0.70;99.90
35668;DHT22;22158;59.280;17.806;2024-01-27T04:12:47;0.70;99.90
35668;DHT22;22158;59.280;17.806;2024-01-27T04:15:13;0.70;99.90
35668;DHT22;22158;59.280;17.806;2024-01-27T04:17:40;0.60;99.90
35668;DHT22;22158;59.280;17.806;2024-01-27T04:20:06;0.60;99.90
35668;DHT22;22158;59.280;17.806;2024-01-27T04:22:33;0.60;99.90
35668;DHT22;22158;59.280;17.806;2024-01-27T04:24:59;0.60;99.90
35668;DHT22;22158;59.280;17.806;2024-01-27T04:27:27;0.60;99.90
35668;DHT22;22158;59.280;17.806;2024-01-27T04:29:53;0.50;99.90
35668;DHT22;22158;59.280;17.806;2024-01-27T04:32:19;0.50;99.90
35668;DHT22;22158;59.280;17.806;2024-01-27T04:34:44;0.50;99.90
35668;DHT22;22158;59.280;17.806;2024-01-27T04:37:10;0.50;99.90
35668;DHT22;22158;59.280;17.806;2024-01-27T04:39:35;0.40;99.90
35668;DHT22;22158;59.280;17.806;2024-01-27T04:42:02;0.40;99.90
35668;DHT22;22158;59.280;17.806;2024-01-27T04:44:28;0.30;99.90
35668;DHT22;22158;59.280;17.806;2024-01-27T04:46:54;0.30;99.90
35668;DHT22;22158;59.280;17.806;2024-01-27T04:49:19;0.30;99.90
35668;DHT22;22158;59.280;17.806;2024-01-27T04:51:45;0.30;99.90
35668;DHT22;22158;59.280;17.806;2024-01-27T04:54:11;0.30;99.90
35668;DHT22;22158;59.280;17.806;2024-01-27T04:56:36;0.30;99.90
35668;DHT22;22158;59.280;17.806;2024-01-27T04:59:02;0.30;99.90
35668;DHT22;22158;59.280;17.806;2024-01-27T05:01:28;0.20;99.90
35668;DHT22;22158;59.280;17.806;2024-01-27T05:03:53;0.20;99.90
35668;DHT22;22158;59.280;17.806;2024-01-27T05:06:19;0.20;99.90
35668;DHT22;22158;59.280;17.806;2024-01-27T05:08:45;0.20;99.90
35668;DHT22;22158;59.280;17.806;2024-01-27T05:11:10;0.20;99.90
35668;DHT22;22158;59.280;17.806;2024-01-27T05:13:36;0.20;99.90
35668;DHT22;22158;59.280;17.806;2024-01-27T05:16:05;0.20;99.90
35668;DHT22;22158;59.280;17.806;2024-01-27T05:18:31;0.20;99.90
35668;DHT22;22158;59.280;17.806;2024-01-27T05:20:57;0.20;99.90
35668;DHT22;22158;59.280;17.806;2024-01-27T05:23:22;0.10;99.90
35668;DHT22;22158;59.280;17.806;2024-01-27T05:25:48;0.20;99.90
35668;DHT22;22158;59.280;17.806;2024-01-27T05:28:14;0.20;99.90
35668;DHT22;22158;59.280;17.806;2024-01-27T05:30:40;0.20;99.90
35668;DHT22;22158;59.280;17.806;2024-01-27T05:33:05;0.20;99.90
35668;DHT22;22158;59.280;17.806;2024-01-27T05:35:31;0.10;99.90
35668;DHT22;22158;59.280;17.806;2024-01-27T05:37:57;0.00;99.90
35668;DHT22;22158;59.280;17.806;2024-01-27T05:40:22;0.00;99.90
35668;DHT22;22158;59.280;17.806;2024-01-27T05:42:48;0.00;99.90
35668;DHT22;22158;59.280;17.806;2024-01-27T05:45:15;0.00;99.90
35668;DHT22;22158;59.280;17.806;2024-01-27T05:47:40;0.00;99.90
35668;DHT22;22158;59.280;17.806;2024-01-27T05:50:06;-0.10;99.90
35668;DHT22;22158;59.280;17.806;2024-01-27T05:52:34;-0.10;99.90
35668;DHT22;22158;59.280;17.806;2024-01-27T05:55:01;-0.20;99.90
35668;DHT22;22158;59.280;17.806;2024-01-27T05:57:26;-0.20;99.90
35668;DHT22;22158;59.280;17.806;2024-01-27T05:59:52;-0.20;99.90
35668;DHT22;22158;59.280;17.806;2024-01-27T06:02:17;-0.20;99.90
35668;DHT22;22158;59.280;17.806;2024-01-27T06:04:43;-0.30;99.90
35668;DHT22;22158;59.280;17.806;2024-01-27T06:07:09;-0.30;99.90
35668;DHT22;22158;59.280;17.806;2024-01-27T06:09:37;-0.30;99.90
35668;DHT22;22158;59.280;17.806;2024-01-27T06:12:02;-0.30;99.90
35668;DHT22;22158;59.280;17.806;2024-01-27T06:14:28;-0.30;99.90
35668;DHT22;22158;59.280;17.806;2024-01-27T06:16:54;-0.30;99.90
35668;DHT22;22158;59.280;17.806;2024-01-27T06:19:20;-0.30;99.90
35668;DHT22;22158;59.280;17.806;2024-01-27T06:21:45;-0.40;99.90
35668;DHT22;22158;59.280;17.806;2024-01-27T06:24:11;-0.40;99.90
35668;DHT22;22158;59.280;17.806;2024-01-27T06:26:36;-0.40;99.90
35668;DHT22;22158;59.280;17.806;2024-01-27T06:29:03;-0.40;99.90
35668;DHT22;22158;59.280;17.806;2024-01-27T06:31:29;-0.40;99.90
35668;DHT22;22158;59.280;17.806;2024-01-27T06:33:55;-0.50;99.90
35668;DHT22;22158;59.280;17.806;2024-01-27T06:36:20;-0.50;99.90
35668;DHT22;22158;59.280;17.806;2024-01-27T06:38:50;-0.50;99.90
35668;DHT22;22158;59.280;17.806;2024-01-27T06:41:16;-0.50;99.90
35668;DHT22;22158;59.280;17.806;2024-01-27T06:43:42;-0.50;99.90
35668;DHT22;22158;59.280;17.806;2024-01-27T06:46:08;-0.50;99.90
35668;DHT22;22158;59.280;17.806;2024-01-27T06:48:33;-0.60;99.90
35668;DHT22;22158;59.280;17.806;2024-01-27T06:50:59;-0.60;99.90
35668;DHT22;22158;59.280;17.806;2024-01-27T06:53:25;-0.60;99.90
35668;DHT22;22158;59.280;17.806;2024-01-27T06:55:50;-0.60;99.90
35668;DHT22;22158;59.280;17.806;2024-01-27T06:58:16;-0.60;99.90
35668;DHT22;22158;59.280;17.806;2024-01-27T07:00:42;-0.70;99.90
35668;DHT22;22158;59.280;17.806;2024-01-27T07:03:07;-0.70;99.90
35668;DHT22;22158;59.280;17.806;2024-01-27T07:05:33;-0.70;99.90
35668;DHT22;22158;59.280;17.806;2024-01-27T07:08:07;-0.80;99.90
35668;DHT22;22158;59.280;17.806;2024-01-27T07:10:36;-0.80;99.90
35668;DHT22;22158;59.280;17.806;2024-01-27T07:13:02;-0.80;99.90
35668;DHT22;22158;59.280;17.806;2024-01-27T07:15:27;-0.80;99.90
35668;DHT22;22158;59.280;17.806;2024-01-27T07:17:54;-0.90;99.90
35668;DHT22;22158;59.280;17.806;2024-01-27T07:20:20;-0.90;99.90
35668;DHT22;22158;59.280;17.806;2024-01-27T07:22:47;-0.90;99.90
35668;DHT22;22158;59.280;17.806;2024-01-27T07:25:13;-1.00;99.90
35668;DHT22;22158;59.280;17.806;2024-01-27T07:27:39;-1.00;99.90
35668;DHT22;22158;59.280;17.806;2024-01-27T07:30:05;-1.00;99.90
35668;DHT22;22158;59.280;17.806;2024-01-27T07:32:33;-1.00;99.90
35668;DHT22;22158;59.280;17.806;2024-01-27T07:34:59;-1.00;99.90
35668;DHT22;22158;59.280;17.806;2024-01-27T07:37:24;-1.00;99.90
35668;DHT22;22158;59.280;17.806;2024-01-27T07:39:50;-1.00;99.90
35668;DHT22;22158;59.280;17.806;2024-01-27T07:42:16;-1.10;99.90
35668;DHT22;22158;59.280;17.806;2024-01-27T07:44:41;-1.10;99.90
35668;DHT22;22158;59.280;17.806;2024-01-27T07:47:08;-1.10;99.90
35668;DHT22;22158;59.280;17.806;2024-01-27T07:49:34;-1.10;99.90
35668;DHT22;22158;59.280;17.806;2024-01-27T07:52:00;-1.10;99.90
35668;DHT22;22158;59.280;17.806;2024-01-27T07:54:26;-1.20;99.90
35668;DHT22;22158;59.280;17.806;2024-01-27T07:56:51;-1.10;99.90
35668;DHT22;22158;59.280;17.806;2024-01-27T07:59:17;-1.10;99.90
35668;DHT22;22158;59.280;17.806;2024-01-27T08:01:44;-1.10;99.90
35668;DHT22;22158;59.280;17.806;2024-01-27T08:04:09;-1.20;99.90
35668;DHT22;22158;59.280;17.806;2024-01-27T08:06:49;-1.20;99.90
35668;DHT22;22158;59.280;17.806;2024-01-27T08:09:15;-1.10;99.90
35668;DHT22;22158;59.280;17.806;2024-01-27T08:11:41;-1.10;99.90
35668;DHT22;22158;59.280;17.806;2024-01-27T08:14:07;-1.10;99.90
35668;DHT22;22158;59.280;17.806;2024-01-27T08:16:32;-1.10;99.90
35668;DHT22;22158;59.280;17.806;2024-01-27T08:18:58;-1.10;99.90
35668;DHT22;22158;59.280;17.806;2024-01-27T08:21:23;-1.00;99.90
35668;DHT22;22158;59.280;17.806;2024-01-27T08:23:49;-1.00;99.90
35668;DHT22;22158;59.280;17.806;2024-01-27T08:26:15;-1.00;99.90
35668;DHT22;22158;59.280;17.806;2024-01-27T08:28:41;-1.00;99.90
35668;DHT22;22158;59.280;17.806;2024-01-27T08:31:06;-1.00;99.90
35668;DHT22;22158;59.280;17.806;2024-01-27T08:33:32;-1.00;99.90
35668;DHT22;22158;59.280;17.806;2024-01-27T08:35:58;-0.90;99.90
35668;DHT22;22158;59.280;17.806;2024-01-27T08:38:23;-0.90;99.90
35668;DHT22;22158;59.280;17.806;2024-01-27T08:40:49;-0.80;99.90
35668;DHT22;22158;59.280;17.806;2024-01-27T08:43:15;-0.90;99.90
35668;DHT22;22158;59.280;17.806;2024-01-27T08:45:41;-0.80;99.90
35668;DHT22;22158;59.280;17.806;2024-01-27T08:48:07;-0.80;99.90
35668;DHT22;22158;59.280;17.806;2024-01-27T08:50:33;-0.80;99.90
35668;DHT22;22158;59.280;17.806;2024-01-27T08:52:59;-0.80;99.90
35668;DHT22;22158;59.280;17.806;2024-01-27T08:55:25;-0.70;99.90
35668;DHT22;22158;59.280;17.806;2024-01-27T08:57:51;-0.70;99.90
35668;DHT22;22158;59.280;17.806;2024-01-27T09:00:17;-0.70;99.90
35668;DHT22;22158;59.280;17.806;2024-01-27T09:02:43;-0.70;99.90
35668;DHT22;22158;59.280;17.806;2024-01-27T09:05:09;-0.60;99.90
35668;DHT22;22158;59.280;17.806;2024-01-27T09:07:35;-0.60;99.90
35668;DHT22;22158;59.280;17.806;2024-01-27T09:10:01;-0.60;99.90
35668;DHT22;22158;59.280;17.806;2024-01-27T09:12:27;-0.60;99.90
35668;DHT22;22158;59.280;17.806;2024-01-27T09:14:52;-0.50;99.90
35668;DHT22;22158;59.280;17.806;2024-01-27T09:17:20;-0.50;99.90
35668;DHT22;22158;59.280;17.806;2024-01-27T09:19:45;-0.50;99.90
35668;DHT22;22158;59.280;17.806;2024-01-27T09:22:11;-0.50;99.90
35668;DHT22;22158;59.280;17.806;2024-01-27T09:24:37;-0.50;99.90
35668;DHT22;22158;59.280;17.806;2024-01-27T09:27:03;-0.50;99.90
35668;DHT22;22158;59.280;17.806;2024-01-27T09:29:29;-0.60;99.90
35668;DHT22;22158;59.280;17.806;2024-01-27T09:31:55;-0.50;99.90
35668;DHT22;22158;59.280;17.806;2024-01-27T09:34:20;-0.50;99.90
35668;DHT22;22158;59.280;17.806;2024-01-27T09:36:46;-0.50;99.90
35668;DHT22;22158;59.280;17.806;2024-01-27T09:39:12;-0.50;99.90
35668;DHT22;22158;59.280;17.806;2024-01-27T09:41:38;-0.50;99.90
35668;DHT22;22158;59.280;17.806;2024-01-27T09:44:04;-0.50;99.90
35668;DHT22;22158;59.280;17.806;2024-01-27T09:46:31;-0.50;99.90
35668;DHT22;22158;59.280;17.806;2024-01-27T09:48:58;-0.40;99.90
35668;DHT22;22158;59.280;17.806;2024-01-27T09:51:25;-0.40;99.90
35668;DHT22;22158;59.280;17.806;2024-01-27T09:53:53;-0.30;99.90
35668;DHT22;22158;59.280;17.806;2024-01-27T09:56:19;-0.30;99.90
35668;DHT22;22158;59.280;17.806;2024-01-27T09:58:46;-0.20;99.90
35668;DHT22;22158;59.280;17.806;2024-01-27T10:01:12;-0.20;99.90
35668;DHT22;22158;59.280;17.806;2024-01-27T10:03:40;-0.10;99.90
35668;DHT22;22158;59.280;17.806;2024-01-27T10:06:10;0.00;99.90
35668;DHT22;22158;59.280;17.806;2024-01-27T10:08:36;0.00;99.90
35668;DHT22;22158;59.280;17.806;2024-01-27T10:11:07;0.10;99.90
35668;DHT22;22158;59.280;17.806;2024-01-27T10:13:34;0.20;99.90
35668;DHT22;22158;59.280;17.806;2024-01-27T10:16:08;0.10;99.90
35668;DHT22;22158;59.280;17.806;2024-01-27T10:18:35;0.20;99.90
35668;DHT22;22158;59.280;17.806;2024-01-27T10:21:12;0.10;99.90
35668;DHT22;22158;59.280;17.806;2024-01-27T10:23:39;0.20;99.90
35668;DHT22;22158;59.280;17.806;2024-01-27T10:26:08;0.20;99.90
35668;DHT22;22158;59.280;17.806;2024-01-27T10:28:33;0.20;99.90
35668;DHT22;22158;59.280;17.806;2024-01-27T10:31:12;0.20;99.90
35668;DHT22;22158;59.280;17.806;2024-01-27T10:33:38;0.20;99.90
35668;DHT22;22158;59.280;17.806;2024-01-27T10:36:04;0.30;99.90
35668;DHT22;22158;59.280;17.806;2024-01-27T10:38:37;0.30;99.90
35668;DHT22;22158;59.280;17.806;2024-01-27T10:41:10;0.20;99.90
35668;DHT22;22158;59.280;17.806;2024-01-27T10:43:37;0.30;99.90
35668;DHT22;22158;59.280;17.806;2024-01-27T10:46:07;0.40;99.90
35668;DHT22;22158;59.280;17.806;2024-01-27T10:48:36;0.40;99.90
35668;DHT22;22158;59.280;17.806;2024-01-27T10:51:08;0.50;99.90
35668;DHT22;22158;59.280;17.806;2024-01-27T10:53:35;0.50;99.90
35668;DHT22;22158;59.280;17.806;2024-01-27T10:56:03;0.50;99.90
35668;DHT22;22158;59.280;17.806;2024-01-27T10:58:34;0.50;99.90
35668;DHT22;22158;59.280;17.806;2024-01-27T11:01:10;0.50;99.90
35668;DHT22;22158;59.280;17.806;2024-01-27T11:03:38;0.50;99.90
35668;DHT22;22158;59.280;17.806;2024-01-27T11:06:06;0.60;99.90
35668;DHT22;22158;59.280;17.806;2024-01-27T11:08:33;0.60;99.90
35668;DHT22;22158;59.280;17.806;2024-01-27T11:11:00;0.70;99.90
35668;DHT22;22158;59.280;17.806;2024-01-27T11:13:28;0.70;99.90
35668;DHT22;22158;59.280;17.806;2024-01-27T11:15:55;0.70;99.90
35668;DHT22;22158;59.280;17.806;2024-01-27T11:18:22;0.80;99.90
35668;DHT22;22158;59.280;17.806;2024-01-27T11:20:47;0.80;99.90
35668;DHT22;22158;59.280;17.806;2024-01-27T11:23:13;0.80;99.90
35668;DHT22;22158;59.280;17.806;2024-01-27T11:25:40;1.00;99.90
35668;DHT22;22158;59.280;17.806;2024-01-27T11:28:16;1.00;99.90
35668;DHT22;22158;59.280;17.806;2024-01-27T11:30:47;1.00;99.90
35668;DHT22;22158;59.280;17.806;2024-01-27T11:33:12;1.10;99.90
35668;DHT22;22158;59.280;17.806;2024-01-27T11:35:38;1.10;99.90
35668;DHT22;22158;59.280;17.806;2024-01-27T11:38:04;1.00;99.90
35668;DHT22;22158;59.280;17.806;2024-01-27T11:40:30;1.10;99.90
35668;DHT22;22158;59.280;17.806;2024-01-27T11:42:57;1.10;99.90
35668;DHT22;22158;59.280;17.806;2024-01-27T11:45:23;1.10;99.90
35668;DHT22;22158;59.280;17.806;2024-01-27T11:47:49;1.10;99.90
35668;DHT22;22158;59.280;17.806;2024-01-27T11:50:17;1.10;99.90
35668;DHT22;22158;59.280;17.806;2024-01-27T11:52:44;1.20;99.90
35668;DHT22;22158;59.280;17.806;2024-01-27T11:55:09;1.30;99.90
35668;DHT22;22158;59.280;17.806;2024-01-27T11:57:35;1.40;99.90
35668;DHT22;22158;59.280;17.806;2024-01-27T12:00:01;1.40;99.90
35668;DHT22;22158;59.280;17.806;2024-01-27T12:02:26;1.30;99.90
35668;DHT22;22158;59.280;17.806;2024-01-27T12:04:52;1.40;99.90
35668;DHT22;22158;59.280;17.806;2024-01-27T12:07:19;1.40;99.90
35668;DHT22;22158;59.280;17.806;2024-01-27T12:09:45;1.30;99.90
35668;DHT22;22158;59.280;17.806;2024-01-27T12:12:12;1.40;99.90
35668;DHT22;22158;59.280;17.806;2024-01-27T12:17:08;1.50;99.90
35668;DHT22;22158;59.280;17.806;2024-01-27T12:19:35;1.50;99.90
35668;DHT22;22158;59.280;17.806;2024-01-27T12:22:00;1.50;99.90
35668;DHT22;22158;59.280;17.806;2024-01-27T12:24:26;1.50;99.90
35668;DHT22;22158;59.280;17.806;2024-01-27T12:26:52;1.50;99.90
35668;DHT22;22158;59.280;17.806;2024-01-27T12:29:20;1.70;99.90
35668;DHT22;22158;59.280;17.806;2024-01-27T12:31:46;1.90;99.90
35668;DHT22;22158;59.280;17.806;2024-01-27T12:34:11;2.50;99.90
35668;DHT22;22158;59.280;17.806;2024-01-27T12:36:41;3.50;99.90
35668;DHT22;22158;59.280;17.806;2024-01-27T12:39:08;4.10;99.90
35668;DHT22;22158;59.280;17.806;2024-01-27T12:41:34;4.10;99.90
35668;DHT22;22158;59.280;17.806;2024-01-27T12:44:00;4.20;99.90
35668;DHT22;22158;59.280;17.806;2024-01-27T12:46:26;4.80;99.90
35668;DHT22;22158;59.280;17.806;2024-01-27T12:48:52;5.30;99.90
35668;DHT22;22158;59.280;17.806;2024-01-27T12:51:18;5.30;99.90
35668;DHT22;22158;59.280;17.806;2024-01-27T12:53:44;5.10;99.90
35668;DHT22;22158;59.280;17.806;2024-01-27T12:56:14;4.70;99.90
35668;DHT22;22158;59.280;17.806;2024-01-27T12:58:41;4.30;99.90
35668;DHT22;22158;59.280;17.806;2024-01-27T13:01:08;4.10;99.90
35668;DHT22;22158;59.280;17.806;2024-01-27T13:03:34;3.90;99.90
35668;DHT22;22158;59.280;17.806;2024-01-27T13:06:01;4.10;99.90
35668;DHT22;22158;59.280;17.806;2024-01-27T13:08:27;4.40;99.90
35668;DHT22;22158;59.280;17.806;2024-01-27T13:10:53;4.80;99.90
35668;DHT22;22158;59.280;17.806;2024-01-27T13:13:19;5.40;99.90
35668;DHT22;22158;59.280;17.806;2024-01-27T13:15:45;6.30;99.90
35668;DHT22;22158;59.280;17.806;2024-01-27T13:18:10;7.00;99.90
35668;DHT22;22158;59.280;17.806;2024-01-27T13:20:37;7.70;99.90
35668;DHT22;22158;59.280;17.806;2024-01-27T13:23:02;8.10;99.90
35668;DHT22;22158;59.280;17.806;2024-01-27T13:25:28;8.20;99.90
35668;DHT22;22158;59.280;17.806;2024-01-27T13:27:54;7.90;99.90
35668;DHT22;22158;59.280;17.806;2024-01-27T13:30:21;7.30;99.90
35668;DHT22;22158;59.280;17.806;2024-01-27T13:32:47;6.80;99.90
35668;DHT22;22158;59.280;17.806;2024-01-27T13:35:12;6.70;99.90
35668;DHT22;22158;59.280;17.806;2024-01-27T13:37:38;6.90;99.90
35668;DHT22;22158;59.280;17.806;2024-01-27T13:40:05;7.20;99.90
35668;DHT22;22158;59.280;17.806;2024-01-27T13:42:33;6.80;99.90
35668;DHT22;22158;59.280;17.806;2024-01-27T13:44:59;6.40;99.90
35668;DHT22;22158;59.280;17.806;2024-01-27T13:47:25;6.00;99.90
35668;DHT22;22158;59.280;17.806;2024-01-27T13:49:52;5.60;99.90
35668;DHT22;22158;59.280;17.806;2024-01-27T13:52:17;5.10;99.90
35668;DHT22;22158;59.280;17.806;2024-01-27T13:54:43;4.40;99.90
35668;DHT22;22158;59.280;17.806;2024-01-27T13:57:09;4.00;99.90
35668;DHT22;22158;59.280;17.806;2024-01-27T13:59:36;3.90;99.90
35668;DHT22;22158;59.280;17.806;2024-01-27T14:02:02;3.50;99.90
35668;DHT22;22158;59.280;17.806;2024-01-27T14:04:28;3.40;99.90
35668;DHT22;22158;59.280;17.806;2024-01-27T14:06:54;3.20;99.90
35668;DHT22;22158;59.280;17.806;2024-01-27T14:09:23;2.90;99.90
35668;DHT22;22158;59.280;17.806;2024-01-27T14:11:49;2.70;99.90
35668;DHT22;22158;59.280;17.806;2024-01-27T14:14:15;2.40;99.90
35668;DHT22;22158;59.280;17.806;2024-01-27T14:16:44;2.20;99.90
35668;DHT22;22158;59.280;17.806;2024-01-27T14:19:10;2.10;99.90
35668;DHT22;22158;59.280;17.806;2024-01-27T14:21:36;1.80;99.90
35668;DHT22;22158;59.280;17.806;2024-01-27T14:24:02;1.70;99.90
35668;DHT22;22158;59.280;17.806;2024-01-27T14:26:31;1.60;99.90
35668;DHT22;22158;59.280;17.806;2024-01-27T14:28:57;1.50;99.90
35668;DHT22;22158;59.280;17.806;2024-01-27T14:31:23;1.50;99.90
35668;DHT22;22158;59.280;17.806;2024-01-27T14:33:49;1.40;99.90
35668;DHT22;22158;59.280;17.806;2024-01-27T14:36:15;1.30;99.90
35668;DHT22;22158;59.280;17.806;2024-01-27T14:38:41;1.30;99.90
35668;DHT22;22158;59.280;17.806;2024-01-27T14:41:07;1.20;99.90
35668;DHT22;22158;59.280;17.806;2024-01-27T14:43:33;1.10;99.90
35668;DHT22;22158;59.280;17.806;2024-01-27T14:45:59;1.10;99.90
35668;DHT22;22158;59.280;17.806;2024-01-27T14:48:25;1.00;99.90
35668;DHT22;22158;59.280;17.806;2024-01-27T14:50:51;1.00;99.90
35668;DHT22;22158;59.280;17.806;2024-01-27T14:53:24;1.00;99.90
35668;DHT22;22158;59.280;17.806;2024-01-27T14:55:50;1.00;99.90
35668;DHT22;22158;59.280;17.806;2024-01-27T14:58:16;0.90;99.90
35668;DHT22;22158;59.280;17.806;2024-01-27T15:00:42;0.90;99.90
35668;DHT22;22158;59.280;17.806;2024-01-27T15:03:08;0.90;99.90
35668;DHT22;22158;59.280;17.806;2024-01-27T15:05:35;0.80;99.90
35668;DHT22;22158;59.280;17.806;2024-01-27T15:08:03;0.80;99.90
35668;DHT22;22158;59.280;17.806;2024-01-27T15:10:29;0.70;99.90
35668;DHT22;22158;59.280;17.806;2024-01-27T15:12:55;0.70;99.90
35668;DHT22;22158;59.280;17.806;2024-01-27T15:15:21;0.70;99.90
35668;DHT22;22158;59.280;17.806;2024-01-27T15:17:46;0.70;99.90
35668;DHT22;22158;59.280;17.806;2024-01-27T15:20:12;0.60;99.90
35668;DHT22;22158;59.280;17.806;2024-01-27T15:22:40;0.60;99.90
35668;DHT22;22158;59.280;17.806;2024-01-27T15:25:06;0.60;99.90